Terminal Aerodrome Forecast
Issued by NWS

Home | Current Version | Previous Version | Text Only | Print | Product List | Glossary On
Versions: 1 2 3 4 5 6 7 8 9 10 11 12 13 14 15 16 17
125
FTUS43 KAPX 181724
TAFTVC
TAF
KTVC 181724Z 1818/1918 23006KT 3SM BR OVC008
     FM190000 23008KT P6SM OVC015 WS010/24035KT
     FM191000 24010G27KT P6SM OVC030 WS010/27035KT
     FM191200 26011G25KT P6SM OVC015 WS010/27035KT
     FM191300 26011G24KT P6SM OVC025
     FM191700 28012G24KT P6SM SCT050=

USA.gov is the U.S. government's official web portal to all federal, state and local government web resources and services.